Time;durP1;ratioP1;P1;durP2;ratioP2;P2;SDS_P1;SDS_P2;PMS_P1;PMS_P2;Temp;Humidity;BMP_temperature;BMP_pressure;BME280_temperature;BME280_humidity;BME280_pressure;Samples;Min_cycle;Max_cycle;Signal;HPM_P1;HPM_P2
2022/09/25 00:00:27;;;;;;;37.35;6.30;;;;;;;;;;5052381;28;20043;-63
2022/09/25 00:02:54;;;;;;;29.05;4.95;;;;;;;;;;5052332;28;20070;-62
2022/09/25 00:05:21;;;;;;;36.65;6.97;;;;;;;;;;5049105;28;20105;-60
2022/09/25 00:07:48;;;;;;;33.15;6.45;;;;;;;;;;5052311;28;20021;-62
2022/09/25 00:10:15;;;;;;;32.20;7.25;;;;;;;;;;5049181;28;20031;-62
2022/09/25 00:12:42;;;;;;;32.83;6.55;;;;;;;;;;5051812;28;20032;-63
2022/09/25 00:15:10;;;;;;;51.72;7.38;;;;;;;;;;5048249;28;20131;-62
2022/09/25 00:17:40;;;;;;;43.10;7.43;;;;;;;;;;5051272;28;20499;-65
2022/09/25 00:20:07;;;;;;;31.23;7.03;;;;;;;;;;5051015;28;20116;-67
2022/09/25 00:22:34;;;;;;;47.65;8.23;;;;;;;;;;5049724;28;20486;-63
2022/09/25 00:25:02;;;;;;;47.33;7.97;;;;;;;;;;5050369;28;20036;-63
2022/09/25 00:27:29;;;;;;;43.35;8.18;;;;;;;;;;5051310;28;20040;-61
2022/09/25 00:29:58;;;;;;;32.33;7.65;;;;;;;;;;5051981;28;20498;-59
2022/09/25 00:32:25;;;;;;;42.33;7.40;;;;;;;;;;5049866;28;20033;-64
2022/09/25 00:34:52;;;;;;;37.78;7.43;;;;;;;;;;5051080;28;20025;-66
2022/09/25 00:37:19;;;;;;;28.25;7.85;;;;;;;;;;5051814;28;20116;-64
2022/09/25 00:39:46;;;;;;;35.67;8.32;;;;;;;;;;5052465;28;20057;-62
2022/09/25 00:42:13;;;;;;;40.33;8.73;;;;;;;;;;5050942;28;20028;-61
2022/09/25 00:44:47;;;;;;;39.80;8.55;;;;;;;;;;5050324;28;20028;-62
2022/09/25 00:47:19;;;;;;;40.35;8.52;;;;;;;;;;5050946;28;20025;-62
2022/09/25 00:49:46;;;;;;;36.15;7.22;;;;;;;;;;5051041;28;20029;-59
2022/09/25 00:52:14;;;;;;;41.78;8.65;;;;;;;;;;5050751;28;20025;-63
2022/09/25 00:54:47;;;;;;;44.78;8.27;;;;;;;;;;5048632;28;20036;-61
2022/09/25 00:57:18;;;;;;;33.20;8.48;;;;;;;;;;5049701;28;20029;-64
2022/09/25 00:59:47;;;;;;;37.40;8.50;;;;;;;;;;5050385;28;20059;-64
2022/09/25 01:02:19;;;;;;;32.95;7.82;;;;;;;;;;5050520;28;20471;-64
2022/09/25 01:04:47;;;;;;;35.13;8.27;;;;;;;;;;5050361;28;20033;-63
2022/09/25 01:07:14;;;;;;;40.95;8.02;;;;;;;;;;5050387;28;20037;-64
2022/09/25 01:09:41;;;;;;;23.70;7.05;;;;;;;;;;5050540;28;20037;-64
2022/09/25 01:12:08;;;;;;;37.10;8.27;;;;;;;;;;5050231;28;20021;-63
2022/09/25 01:14:35;;;;;;;30.25;7.28;;;;;;;;;;5050363;28;20041;-63
2022/09/25 01:17:07;;;;;;;29.20;7.53;;;;;;;;;;5050385;28;20104;-61
2022/09/25 01:19:50;;;;;;;30.48;7.05;;;;;;;;;;5049820;28;20024;-61
2022/09/25 01:22:26;;;;;;;25.27;7.15;;;;;;;;;;5051567;28;20097;-60
2022/09/25 01:24:59;;;;;;;34.33;7.30;;;;;;;;;;5048700;28;20029;-60
2022/09/25 01:27:45;;;;;;;33.30;6.18;;;;;;;;;;5047843;28;20029;-63
2022/09/25 01:30:13;;;;;;;40.05;6.53;;;;;;;;;;5048629;28;20036;-66
2022/09/25 01:32:53;;;;;;;30.95;5.90;;;;;;;;;;5049412;28;20083;-65
2022/09/25 01:35:20;;;;;;;24.42;7.13;;;;;;;;;;5048846;28;20086;-66
2022/09/25 01:37:54;;;;;;;30.85;5.85;;;;;;;;;;5051434;28;20033;-62
2022/09/25 01:40:35;;;;;;;27.85;6.50;;;;;;;;;;5050735;28;20056;-64
2022/09/25 01:43:02;;;;;;;34.00;6.53;;;;;;;;;;5049773;28;20040;-64
2022/09/25 01:45:53;;;;;;;23.08;5.25;;;;;;;;;;5050350;28;20037;-64
2022/09/25 01:48:23;;;;;;;23.98;5.82;;;;;;;;;;5041726;28;20127;-62
2022/09/25 01:50:58;;;;;;;22.77;5.28;;;;;;;;;;5051577;28;20125;-63
2022/09/25 01:53:33;;;;;;;19.95;5.43;;;;;;;;;;5051712;28;20445;-62
2022/09/25 01:56:21;;;;;;;18.08;5.10;;;;;;;;;;5051725;28;20091;-65
2022/09/25 01:58:54;;;;;;;27.80;5.30;;;;;;;;;;5051548;28;20036;-62
2022/09/25 02:01:29;;;;;;;28.00;5.15;;;;;;;;;;5051360;28;20041;-62
2022/09/25 02:03:56;;;;;;;22.98;5.25;;;;;;;;;;5051650;28;20035;-63
2022/09/25 02:06:25;;;;;;;24.25;5.00;;;;;;;;;;5051546;28;20025;-62
2022/09/25 02:08:58;;;;;;;24.92;4.22;;;;;;;;;;5051574;28;20116;-62
2022/09/25 02:11:28;;;;;;;21.08;4.10;;;;;;;;;;5051495;28;20064;-63
2022/09/25 02:13:59;;;;;;;21.70;4.45;;;;;;;;;;5051177;28;20036;-63
2022/09/25 02:16:30;;;;;;;17.95;4.07;;;;;;;;;;5051496;28;20029;-61
2022/09/25 02:21:42;;;;;;;31.02;4.47;;;;;;;;;;5049316;28;20482;-62
2022/09/25 02:24:34;;;;;;;27.58;3.92;;;;;;;;;;5051467;28;20426;-63
2022/09/25 02:27:02;;;;;;;28.70;3.93;;;;;;;;;;5037724;28;20083;-66
2022/09/25 02:29:30;;;;;;;35.40;4.35;;;;;;;;;;5051488;28;20055;-65
2022/09/25 02:31:59;;;;;;;20.38;4.15;;;;;;;;;;5047611;28;20029;-61
2022/09/25 02:34:27;;;;;;;23.52;4.15;;;;;;;;;;5049775;28;20075;-62
2022/09/25 02:36:54;;;;;;;27.33;3.80;;;;;;;;;;5048686;28;20029;-62
2022/09/25 02:39:23;;;;;;;13.48;3.20;;;;;;;;;;5049784;28;20041;-61
2022/09/25 02:41:54;;;;;;;26.58;3.95;;;;;;;;;;5049516;28;20045;-65
2022/09/25 02:44:33;;;;;;;8.77;2.72;;;;;;;;;;5050156;28;20057;-65
2022/09/25 02:47:11;;;;;;;17.38;3.35;;;;;;;;;;5046312;28;20505;-64
2022/09/25 02:49:49;;;;;;;11.95;3.10;;;;;;;;;;5041306;28;20090;-63
2022/09/25 02:52:21;;;;;;;12.57;2.97;;;;;;;;;;5050032;28;20462;-62
2022/09/25 02:54:55;;;;;;;14.00;2.83;;;;;;;;;;5054217;28;20025;-62
2022/09/25 02:57:29;;;;;;;17.80;2.80;;;;;;;;;;5054426;28;20035;-62
2022/09/25 02:59:58;;;;;;;9.45;2.65;;;;;;;;;;5054605;28;20029;-61
2022/09/25 03:02:28;;;;;;;13.82;2.50;;;;;;;;;;5054674;28;20052;-61
2022/09/25 03:04:58;;;;;;;12.27;2.78;;;;;;;;;;5054427;28;20037;-62
2022/09/25 03:07:26;;;;;;;10.75;2.55;;;;;;;;;;5054708;28;20037;-66
2022/09/25 03:09:54;;;;;;;11.52;2.97;;;;;;;;;;5053146;28;20482;-63
2022/09/25 03:12:21;;;;;;;8.30;2.47;;;;;;;;;;5054453;28;20032;-65
2022/09/25 03:14:48;;;;;;;7.88;2.30;;;;;;;;;;5054142;28;20103;-65
2022/09/25 03:17:16;;;;;;;8.23;2.90;;;;;;;;;;5053058;28;20060;-65
2022/09/25 03:19:43;;;;;;;6.90;2.25;;;;;;;;;;5054296;28;20116;-63
2022/09/25 03:22:10;;;;;;;9.23;2.17;;;;;;;;;;5053719;28;20490;-63
2022/09/25 03:24:37;;;;;;;6.97;2.33;;;;;;;;;;5054605;28;20104;-61
2022/09/25 03:27:04;;;;;;;13.73;3.30;;;;;;;;;;5061393;28;20033;-61
2022/09/25 03:29:32;;;;;;;6.43;2.20;;;;;;;;;;5074451;28;20505;-60
2022/09/25 03:31:59;;;;;;;15.05;2.67;;;;;;;;;;5074218;28;20040;-61
2022/09/25 03:34:26;;;;;;;10.55;2.83;;;;;;;;;;5074517;28;20037;-61
2022/09/25 03:36:53;;;;;;;13.18;2.55;;;;;;;;;;5074435;28;20032;-61
2022/09/25 03:39:20;;;;;;;13.38;3.00;;;;;;;;;;5074107;28;20032;-61
2022/09/25 03:41:47;;;;;;;13.10;2.28;;;;;;;;;;5074004;28;20037;-61
2022/09/25 03:44:14;;;;;;;8.23;2.30;;;;;;;;;;5074301;28;20024;-61
2022/09/25 03:46:41;;;;;;;11.85;2.40;;;;;;;;;;5074221;28;20028;-61
2022/09/25 03:49:09;;;;;;;10.23;2.42;;;;;;;;;;5074057;28;20021;-60
2022/09/25 03:51:37;;;;;;;6.32;2.38;;;;;;;;;;5074231;28;20101;-60
2022/09/25 03:54:04;;;;;;;9.80;2.63;;;;;;;;;;5073919;28;20031;-61
2022/09/25 03:56:31;;;;;;;11.13;2.00;;;;;;;;;;5073734;28;20029;-61
2022/09/25 03:58:58;;;;;;;8.98;2.40;;;;;;;;;;5073856;28;20021;-60
2022/09/25 04:01:26;;;;;;;6.80;2.30;;;;;;;;;;5073589;28;20036;-61
2022/09/25 04:03:53;;;;;;;7.32;2.22;;;;;;;;;;5073820;28;20096;-61
2022/09/25 04:06:23;;;;;;;8.50;1.92;;;;;;;;;;5073799;28;20468;-60
2022/09/25 04:08:50;;;;;;;6.75;1.95;;;;;;;;;;5073924;28;20032;-61
2022/09/25 04:11:18;;;;;;;7.38;2.22;;;;;;;;;;5073564;28;20141;-61
2022/09/25 04:13:46;;;;;;;7.40;2.22;;;;;;;;;;5073267;28;20021;-61
2022/09/25 04:16:14;;;;;;;7.93;2.40;;;;;;;;;;5073571;28;20028;-60
2022/09/25 04:18:41;;;;;;;5.03;1.80;;;;;;;;;;5073431;28;20375;-61
2022/09/25 04:21:09;;;;;;;7.40;2.10;;;;;;;;;;5073437;28;20042;-61
2022/09/25 04:23:36;;;;;;;5.22;1.90;;;;;;;;;;5072146;28;20044;-61
2022/09/25 04:26:04;;;;;;;6.10;2.22;;;;;;;;;;5073437;28;20025;-61
2022/09/25 04:28:31;;;;;;;5.43;2.13;;;;;;;;;;5073242;28;20020;-61
2022/09/25 04:30:59;;;;;;;7.53;2.17;;;;;;;;;;5073201;28;20040;-61
2022/09/25 04:36:11;;;;;;;6.53;2.53;;;;;;;;;;5073111;28;20035;-61
2022/09/25 04:38:38;;;;;;;4.15;1.90;;;;;;;;;;5073274;28;20020;-61
2022/09/25 04:41:06;;;;;;;3.42;1.83;;;;;;;;;;5073112;28;20032;-60
2022/09/25 04:43:34;;;;;;;3.53;1.92;;;;;;;;;;5072666;28;20036;-61
2022/09/25 04:46:05;;;;;;;4.22;1.80;;;;;;;;;;5071761;28;20376;-61
2022/09/25 04:48:33;;;;;;;9.18;2.05;;;;;;;;;;5072973;28;20025;-61
2022/09/25 04:51:00;;;;;;;4.95;2.03;;;;;;;;;;5072913;28;20037;-61
2022/09/25 04:53:28;;;;;;;4.13;2.00;;;;;;;;;;5072979;28;20025;-61
2022/09/25 04:56:00;;;;;;;7.05;2.20;;;;;;;;;;5072787;28;20031;-61
2022/09/25 04:58:27;;;;;;;6.45;2.03;;;;;;;;;;5072835;28;20034;-60
2022/09/25 05:00:54;;;;;;;6.28;2.17;;;;;;;;;;5072816;28;20028;-60
2022/09/25 05:03:21;;;;;;;3.17;1.60;;;;;;;;;;5072714;28;20137;-61
2022/09/25 05:05:49;;;;;;;3.65;2.15;;;;;;;;;;5072579;28;20067;-61
2022/09/25 05:08:16;;;;;;;4.63;1.73;;;;;;;;;;5072324;28;20029;-61
2022/09/25 05:10:43;;;;;;;5.57;2.25;;;;;;;;;;5072572;28;20051;-60
2022/09/25 05:13:10;;;;;;;3.80;2.22;;;;;;;;;;5072738;28;20028;-61
2022/09/25 05:15:37;;;;;;;5.15;1.90;;;;;;;;;;5072530;28;20072;-60
2022/09/25 05:18:06;;;;;;;4.20;1.88;;;;;;;;;;5072476;28;20036;-61
2022/09/25 05:20:35;;;;;;;3.28;1.70;;;;;;;;;;5072499;28;20062;-61
2022/09/25 05:23:03;;;;;;;4.57;1.90;;;;;;;;;;5072601;28;20021;-60
2022/09/25 05:25:30;;;;;;;4.25;2.20;;;;;;;;;;5072582;28;20028;-61
2022/09/25 05:27:58;;;;;;;3.65;2.00;;;;;;;;;;5072596;28;20024;-61
2022/09/25 05:30:26;;;;;;;3.38;2.10;;;;;;;;;;5072501;28;20039;-61
2022/09/25 05:32:53;;;;;;;3.45;1.75;;;;;;;;;;5072318;28;20032;-61
2022/09/25 05:35:21;;;;;;;3.13;1.80;;;;;;;;;;5072465;28;20020;-61
2022/09/25 05:37:48;;;;;;;6.47;2.00;;;;;;;;;;5072393;28;20070;-61
2022/09/25 05:40:16;;;;;;;3.72;2.13;;;;;;;;;;5072112;28;20120;-61
2022/09/25 05:42:44;;;;;;;3.97;1.90;;;;;;;;;;5072338;28;20028;-61
2022/09/25 05:45:14;;;;;;;2.38;1.80;;;;;;;;;;5072299;28;20023;-61
2022/09/25 05:47:42;;;;;;;3.15;1.70;;;;;;;;;;5072363;28;20024;-61
2022/09/25 05:50:10;;;;;;;5.28;2.00;;;;;;;;;;5072134;28;20044;-61
2022/09/25 05:52:38;;;;;;;3.05;1.77;;;;;;;;;;5072237;28;20052;-61
2022/09/25 05:55:05;;;;;;;3.15;1.98;;;;;;;;;;5072379;28;20024;-60
2022/09/25 05:57:33;;;;;;;3.60;1.90;;;;;;;;;;5072272;28;20053;-60
2022/09/25 06:00:00;;;;;;;2.55;1.90;;;;;;;;;;5072178;28;20020;-60
2022/09/25 06:02:27;;;;;;;6.40;2.00;;;;;;;;;;5058052;28;20057;-61
2022/09/25 06:04:54;;;;;;;2.55;1.80;;;;;;;;;;5052159;28;20025;-61
2022/09/25 06:07:21;;;;;;;2.85;1.92;;;;;;;;;;5052131;28;20467;-61
2022/09/25 06:09:48;;;;;;;3.33;2.00;;;;;;;;;;5052126;28;20021;-61
2022/09/25 06:12:15;;;;;;;3.25;1.90;;;;;;;;;;5052007;28;20036;-60
2022/09/25 06:14:42;;;;;;;4.38;2.13;;;;;;;;;;5051901;28;20049;-61
2022/09/25 06:17:12;;;;;;;2.78;1.92;;;;;;;;;;5051922;28;20033;-61
2022/09/25 06:19:39;;;;;;;3.50;1.73;;;;;;;;;;5052466;28;20052;-61
2022/09/25 06:22:06;;;;;;;5.60;2.30;;;;;;;;;;5055789;28;20371;-61
2022/09/25 06:24:33;;;;;;;3.90;1.98;;;;;;;;;;5055697;28;20033;-61
2022/09/25 06:27:00;;;;;;;2.65;1.75;;;;;;;;;;5054159;28;20037;-63
2022/09/25 06:29:27;;;;;;;5.97;1.90;;;;;;;;;;5055740;28;20063;-62
2022/09/25 06:31:54;;;;;;;4.75;1.92;;;;;;;;;;5055519;28;20060;-62
2022/09/25 06:34:21;;;;;;;3.75;2.20;;;;;;;;;;5055620;28;20040;-63
2022/09/25 06:36:49;;;;;;;4.55;2.40;;;;;;;;;;5055323;28;20040;-63
2022/09/25 06:39:15;;;;;;;3.15;1.80;;;;;;;;;;5055568;28;20017;-63
2022/09/25 06:41:42;;;;;;;3.92;1.92;;;;;;;;;;5055215;28;20044;-63
2022/09/25 06:44:09;;;;;;;2.60;1.92;;;;;;;;;;5055505;28;20040;-63
2022/09/25 06:46:36;;;;;;;4.50;1.80;;;;;;;;;;5055448;28;20096;-63
2022/09/25 06:49:03;;;;;;;4.63;2.03;;;;;;;;;;5055340;28;20029;-63
2022/09/25 06:51:34;;;;;;;3.10;1.80;;;;;;;;;;5055012;28;20083;-62
2022/09/25 06:54:01;;;;;;;3.42;1.65;;;;;;;;;;5055244;28;20056;-63
2022/09/25 06:56:28;;;;;;;3.35;1.90;;;;;;;;;;5055147;28;20470;-63
2022/09/25 06:58:55;;;;;;;4.03;2.00;;;;;;;;;;5055185;28;20024;-63
2022/09/25 07:01:22;;;;;;;3.40;1.80;;;;;;;;;;5054990;28;20029;-63
2022/09/25 07:03:49;;;;;;;2.90;1.75;;;;;;;;;;5054919;28;20111;-63
2022/09/25 07:06:20;;;;;;;2.83;1.85;;;;;;;;;;5055171;28;20509;-63
2022/09/25 07:08:48;;;;;;;3.43;2.10;;;;;;;;;;5054823;28;20057;-63
2022/09/25 07:11:19;;;;;;;2.80;1.80;;;;;;;;;;5054655;28;20028;-63
2022/09/25 07:13:47;;;;;;;3.35;1.90;;;;;;;;;;5054730;28;20021;-63
2022/09/25 07:16:15;;;;;;;3.03;2.00;;;;;;;;;;5055098;28;20364;-63
2022/09/25 07:18:43;;;;;;;3.38;2.03;;;;;;;;;;5053477;28;20025;-63
2022/09/25 07:21:14;;;;;;;3.55;2.05;;;;;;;;;;5054366;28;20037;-63
2022/09/25 07:23:41;;;;;;;4.90;2.17;;;;;;;;;;5054805;28;20057;-63
2022/09/25 07:26:10;;;;;;;3.80;1.90;;;;;;;;;;5054705;28;20032;-62
2022/09/25 07:28:38;;;;;;;3.03;1.75;;;;;;;;;;5054624;28;20433;-62
2022/09/25 07:31:15;;;;;;;4.45;2.10;;;;;;;;;;5054240;28;20112;-63
2022/09/25 07:33:42;;;;;;;3.53;2.28;;;;;;;;;;5054344;28;20091;-62
2022/09/25 07:36:09;;;;;;;3.10;1.83;;;;;;;;;;5054376;28;20025;-63
2022/09/25 07:38:36;;;;;;;2.90;2.13;;;;;;;;;;5054525;28;20760;-63
2022/09/25 07:41:05;;;;;;;2.65;1.83;;;;;;;;;;5054275;28;20242;-63
2022/09/25 07:43:32;;;;;;;2.83;1.98;;;;;;;;;;5054289;28;20040;-62
2022/09/25 07:46:00;;;;;;;3.75;2.00;;;;;;;;;;5054077;28;20021;-63
2022/09/25 07:48:29;;;;;;;2.83;1.80;;;;;;;;;;5054353;28;20036;-62
2022/09/25 07:50:59;;;;;;;3.85;2.00;;;;;;;;;;5054083;28;20037;-63
2022/09/25 07:53:26;;;;;;;3.25;1.85;;;;;;;;;;5054186;28;20017;-63
2022/09/25 07:55:56;;;;;;;3.50;1.65;;;;;;;;;;5054047;28;20033;-63
2022/09/25 07:58:22;;;;;;;3.00;2.08;;;;;;;;;;5054157;28;20032;-63
2022/09/25 08:00:50;;;;;;;4.97;2.08;;;;;;;;;;5053760;28;20441;-63
2022/09/25 08:03:16;;;;;;;2.80;1.95;;;;;;;;;;5053877;28;20032;-62
2022/09/25 08:05:43;;;;;;;2.60;1.98;;;;;;;;;;5053900;28;20021;-63
2022/09/25 08:08:10;;;;;;;3.88;1.80;;;;;;;;;;5053857;28;20017;-63
2022/09/25 08:10:37;;;;;;;2.13;1.83;;;;;;;;;;5053913;28;20040;-62
2022/09/25 08:13:04;;;;;;;2.35;2.00;;;;;;;;;;5053502;28;20104;-62
2022/09/25 08:15:32;;;;;;;3.58;2.03;;;;;;;;;;5053470;28;20128;-62
2022/09/25 08:17:59;;;;;;;2.40;1.80;;;;;;;;;;5053673;28;20029;-63
2022/09/25 08:20:26;;;;;;;3.58;1.83;;;;;;;;;;5053536;28;20029;-63
2022/09/25 08:22:56;;;;;;;2.75;1.80;;;;;;;;;;5053315;28;20390;-63
2022/09/25 08:25:23;;;;;;;2.70;1.90;;;;;;;;;;5053548;28;20028;-63
2022/09/25 08:27:50;;;;;;;3.15;1.95;;;;;;;;;;5053466;28;20024;-63
2022/09/25 08:30:17;;;;;;;2.22;1.90;;;;;;;;;;5053509;28;20032;-62
2022/09/25 08:32:44;;;;;;;2.65;2.00;;;;;;;;;;5053295;28;20431;-63
2022/09/25 08:35:11;;;;;;;3.40;2.10;;;;;;;;;;5053365;28;20033;-63
2022/09/25 08:37:41;;;;;;;4.05;2.03;;;;;;;;;;5053212;28;20025;-62
2022/09/25 08:40:25;;;;;;;3.45;1.50;;;;;;;;;;5053245;28;20029;-62
2022/09/25 08:42:53;;;;;;;3.90;2.05;;;;;;;;;;5052599;28;20033;-63
2022/09/25 08:51:08;;;;;;;2.50;1.80;;;;;;;;;;5053024;28;20128;-63
2022/09/25 08:53:35;;;;;;;2.03;1.63;;;;;;;;;;5053129;28;20021;-63
2022/09/25 08:56:18;;;;;;;2.80;1.90;;;;;;;;;;5052860;28;20044;-62
2022/09/25 08:58:49;;;;;;;3.13;2.05;;;;;;;;;;5052951;28;20108;-62
2022/09/25 09:01:19;;;;;;;4.00;2.22;;;;;;;;;;5051381;28;20037;-63
2022/09/25 09:03:52;;;;;;;2.90;1.80;;;;;;;;;;5052908;28;20025;-62
2022/09/25 09:06:19;;;;;;;2.50;1.80;;;;;;;;;;5052847;28;20024;-63
2022/09/25 09:08:54;;;;;;;3.15;2.15;;;;;;;;;;5052797;28;20501;-62
2022/09/25 09:11:42;;;;;;;3.42;2.00;;;;;;;;;;5052525;28;20025;-62
2022/09/25 09:14:15;;;;;;;2.72;2.10;;;;;;;;;;5052560;28;20102;-62
2022/09/25 09:16:46;;;;;;;2.10;1.75;;;;;;;;;;5052774;28;20527;-63
2022/09/25 09:19:13;;;;;;;3.83;1.90;;;;;;;;;;5052627;28;20025;-62
2022/09/25 09:22:09;;;;;;;2.33;1.92;;;;;;;;;;5052339;28;20037;-62
2022/09/25 09:25:02;;;;;;;3.15;1.95;;;;;;;;;;5039854;28;20033;-62
2022/09/25 09:27:28;;;;;;;;;;;;;;;;;;5050551;28;20048;-63
2022/09/25 09:30:08;;;;;;;2.92;1.90;;;;;;;;;;5052383;28;19909;-63
2022/09/25 09:32:41;;;;;;;3.08;1.83;;;;;;;;;;5052454;28;20116;-63
2022/09/25 09:35:27;;;;;;;2.10;1.90;;;;;;;;;;5052467;28;20383;-62
2022/09/25 09:38:04;;;;;;;2.72;1.92;;;;;;;;;;5052374;28;20479;-63
2022/09/25 09:40:46;;;;;;;2.15;1.77;;;;;;;;;;5052200;28;20041;-62
2022/09/25 09:43:19;;;;;;;3.15;2.03;;;;;;;;;;5052404;28;20437;-62
2022/09/25 09:46:04;;;;;;;3.40;2.00;;;;;;;;;;5051039;28;20055;-62
2022/09/25 09:48:36;;;;;;;3.30;2.20;;;;;;;;;;5052366;28;20526;-63
2022/09/25 09:51:07;;;;;;;2.20;1.90;;;;;;;;;;5052056;28;20075;-63
2022/09/25 09:53:39;;;;;;;2.50;1.92;;;;;;;;;;5052361;28;20032;-62
2022/09/25 09:56:15;;;;;;;3.00;1.83;;;;;;;;;;5055109;28;20100;-62
2022/09/25 09:58:45;;;;;;;3.25;2.20;;;;;;;;;;5056261;28;20037;-62
2022/09/25 10:01:13;;;;;;;2.58;2.00;;;;;;;;;;5056131;28;20568;-62
2022/09/25 10:03:41;;;;;;;2.78;2.20;;;;;;;;;;5056307;28;20108;-62
2022/09/25 10:06:10;;;;;;;2.22;1.90;;;;;;;;;;5056095;28;20025;-63
2022/09/25 10:08:37;;;;;;;2.40;2.17;;;;;;;;;;5056200;28;20507;-63
2022/09/25 10:11:06;;;;;;;1.98;1.77;;;;;;;;;;5055953;28;20060;-63
2022/09/25 10:13:37;;;;;;;2.45;1.85;;;;;;;;;;5056090;28;20048;-62
2022/09/25 10:16:10;;;;;;;3.10;1.90;;;;;;;;;;5055802;28;20049;-63
2022/09/25 10:19:03;;;;;;;2.80;1.95;;;;;;;;;;5055810;28;20398;-63
2022/09/25 10:21:53;;;;;;;3.42;2.08;;;;;;;;;;5055641;28;20088;-63
2022/09/25 10:24:52;;;;;;;3.33;2.40;;;;;;;;;;5048198;28;20490;-62
2022/09/25 10:27:26;;;;;;;2.53;2.00;;;;;;;;;;5055614;28;20029;-62
2022/09/25 10:30:11;;;;;;;2.35;1.92;;;;;;;;;;5055648;28;20036;-62
2022/09/25 10:32:59;;;;;;;2.95;2.20;;;;;;;;;;5055557;28;20020;-63
2022/09/25 10:35:39;;;;;;;2.60;1.90;;;;;;;;;;5055604;28;20391;-63
2022/09/25 10:38:15;;;;;;;4.32;2.00;;;;;;;;;;5055597;28;20020;-63
2022/09/25 10:40:46;;;;;;;3.45;2.10;;;;;;;;;;5055324;28;20033;-63
2022/09/25 10:43:16;;;;;;;2.05;1.75;;;;;;;;;;5055420;28;20110;-63
2022/09/25 10:45:43;;;;;;;2.50;2.20;;;;;;;;;;5055424;28;20484;-63
2022/09/25 10:51:18;;;;;;;2.28;2.05;;;;;;;;;;5055573;28;20031;-63
2022/09/25 10:53:46;;;;;;;2.65;1.90;;;;;;;;;;5055260;28;20040;-62
2022/09/25 10:56:37;;;;;;;2.72;2.17;;;;;;;;;;5055232;28;20088;-63
2022/09/25 10:59:13;;;;;;;2.47;2.00;;;;;;;;;;5055220;28;20095;-63
2022/09/25 11:01:41;;;;;;;4.07;2.30;;;;;;;;;;5054841;28;20483;-62
2022/09/25 11:04:15;;;;;;;2.80;1.98;;;;;;;;;;5055062;28;20427;-63
2022/09/25 11:06:46;;;;;;;2.30;2.10;;;;;;;;;;5054334;28;20463;-63
2022/09/25 11:09:15;;;;;;;3.35;2.08;;;;;;;;;;5055121;28;20021;-62
2022/09/25 11:11:42;;;;;;;2.78;2.03;;;;;;;;;;5053992;28;20032;-62
2022/09/25 11:14:31;;;;;;;2.92;2.20;;;;;;;;;;5054693;28;20115;-63
2022/09/25 11:16:59;;;;;;;2.47;2.00;;;;;;;;;;5054852;28;20064;-62
2022/09/25 11:19:35;;;;;;;3.78;2.55;;;;;;;;;;5054909;28;20442;-63
2022/09/25 11:22:31;;;;;;;2.83;2.10;;;;;;;;;;5054586;28;20033;-62
2022/09/25 11:25:11;;;;;;;2.17;1.95;;;;;;;;;;5054814;28;20033;-63
2022/09/25 11:27:43;;;;;;;3.40;2.30;;;;;;;;;;5054754;28;20037;-63
2022/09/25 11:30:11;;;;;;;3.35;2.10;;;;;;;;;;5054681;28;20108;-62
2022/09/25 11:32:47;;;;;;;2.78;2.10;;;;;;;;;;5054581;28;20045;-62
2022/09/25 11:35:31;;;;;;;1.98;1.83;;;;;;;;;;5054681;28;20129;-63
2022/09/25 11:38:05;;;;;;;2.47;2.05;;;;;;;;;;5054443;28;20021;-62
2022/09/25 11:43:25;;;;;;;1.88;1.77;;;;;;;;;;5054464;28;20040;-63
2022/09/25 11:45:55;;;;;;;4.30;2.15;;;;;;;;;;5054436;28;20052;-62
2022/09/25 11:48:31;;;;;;;2.63;2.28;;;;;;;;;;5054268;28;20494;-62
2022/09/25 11:51:01;;;;;;;2.40;1.85;;;;;;;;;;5054203;28;20506;-63
2022/09/25 11:53:31;;;;;;;2.15;1.95;;;;;;;;;;5054250;28;20056;-62
2022/09/25 11:56:02;;;;;;;2.50;1.92;;;;;;;;;;5054099;28;20072;-61
2022/09/25 11:58:32;;;;;;;2.58;2.10;;;;;;;;;;5054197;28;20025;-61
2022/09/25 12:01:18;;;;;;;2.30;1.88;;;;;;;;;;5053747;28;20049;-61
2022/09/25 12:04:11;;;;;;;2.15;1.95;;;;;;;;;;5053987;28;20036;-60
2022/09/25 12:06:38;;;;;;;2.30;2.00;;;;;;;;;;5054100;28;20061;-60
2022/09/25 12:09:23;;;;;;;2.10;1.73;;;;;;;;;;5053942;28;20033;-60
2022/09/25 12:11:50;;;;;;;2.63;1.98;;;;;;;;;;5053794;28;20056;-60
2022/09/25 12:14:24;;;;;;;2.33;2.00;;;;;;;;;;5053652;28;20044;-60
2022/09/25 12:17:00;;;;;;;3.00;1.98;;;;;;;;;;5049648;28;20078;-62
2022/09/25 12:19:36;;;;;;;7.63;2.00;;;;;;;;;;5048479;28;20379;-61
2022/09/25 12:22:09;;;;;;;3.53;1.95;;;;;;;;;;5053314;28;20132;-60
2022/09/25 12:25:01;;;;;;;4.07;1.88;;;;;;;;;;5053339;28;20036;-61
2022/09/25 12:28:01;;;;;;;4.40;2.03;;;;;;;;;;5053321;28;20068;-61
2022/09/25 12:30:32;;;;;;;6.05;2.10;;;;;;;;;;5033394;28;20037;-63
2022/09/25 12:32:59;;;;;;;2.53;2.00;;;;;;;;;;5033409;28;20705;-63
2022/09/25 12:35:43;;;;;;;6.82;1.90;;;;;;;;;;5033458;28;20017;-60
2022/09/25 12:38:13;;;;;;;4.93;1.95;;;;;;;;;;5044948;28;20043;-62
2022/09/25 12:40:49;;;;;;;2.88;1.80;;;;;;;;;;5049913;28;20041;-61
2022/09/25 12:43:19;;;;;;;4.65;2.00;;;;;;;;;;5033465;28;20021;-61
2022/09/25 12:45:49;;;;;;;9.93;2.28;;;;;;;;;;5033286;28;20034;-60
2022/09/25 12:48:39;;;;;;;5.22;1.90;;;;;;;;;;5033284;28;20041;-62
2022/09/25 12:51:20;;;;;;;3.17;1.70;;;;;;;;;;5016283;28;20053;-60
2022/09/25 12:53:55;;;;;;;7.93;2.05;;;;;;;;;;5016994;28;20068;-60
2022/09/25 12:56:25;;;;;;;6.20;2.10;;;;;;;;;;5032966;28;20037;-62
2022/09/25 12:58:56;;;;;;;3.40;1.90;;;;;;;;;;5033071;28;20029;-62
2022/09/25 13:01:23;;;;;;;6.03;2.03;;;;;;;;;;5032763;28;20060;-62
2022/09/25 13:03:53;;;;;;;6.05;2.10;;;;;;;;;;5019633;28;20036;-65
2022/09/25 13:06:20;;;;;;;4.90;2.25;;;;;;;;;;5014312;28;20488;-57
2022/09/25 13:09:22;;;;;;;9.90;2.30;;;;;;;;;;5018768;28;20022;-60
2022/09/25 13:11:52;;;;;;;7.50;1.93;;;;;;;;;;4971074;28;20058;-60
2022/09/25 13:14:25;;;;;;;6.20;1.92;;;;;;;;;;5023820;28;20110;-60
2022/09/25 13:16:52;;;;;;;6.07;1.80;;;;;;;;;;5026694;28;20042;-60
2022/09/25 13:19:27;;;;;;;10.48;2.20;;;;;;;;;;5027557;28;20085;-63
2022/09/25 13:22:03;;;;;;;6.90;2.00;;;;;;;;;;5027686;28;20049;-64
2022/09/25 13:24:31;;;;;;;3.55;1.65;;;;;;;;;;5025814;28;20026;-60
2022/09/25 13:27:03;;;;;;;4.15;1.92;;;;;;;;;;5012768;28;20034;-59
2022/09/25 13:29:37;;;;;;;5.13;2.13;;;;;;;;;;5009812;28;20499;-63
2022/09/25 13:32:08;;;;;;;3.80;1.80;;;;;;;;;;5009839;28;20136;-62
2022/09/25 13:34:38;;;;;;;5.07;1.80;;;;;;;;;;5015923;28;20168;-65
2022/09/25 13:37:06;;;;;;;5.53;1.75;;;;;;;;;;5016285;28;20026;-57
2022/09/25 13:42:21;;;;;;;13.48;1.83;;;;;;;;;;5024610;28;20092;-63
2022/09/25 13:44:56;;;;;;;10.15;1.98;;;;;;;;;;5030540;28;20030;-61
2022/09/25 13:47:23;;;;;;;6.88;1.80;;;;;;;;;;5032081;28;20116;-62
2022/09/25 13:49:54;;;;;;;8.65;2.08;;;;;;;;;;5030600;28;20026;-62
2022/09/25 13:52:31;;;;;;;5.90;1.67;;;;;;;;;;5032278;28;20033;-61
2022/09/25 13:55:19;;;;;;;5.60;1.65;;;;;;;;;;5027006;28;20033;-62
2022/09/25 13:57:58;;;;;;;3.83;2.00;;;;;;;;;;5031462;28;20034;-62
2022/09/25 14:00:27;;;;;;;3.88;1.95;;;;;;;;;;5020995;28;20029;-59
2022/09/25 14:03:01;;;;;;;4.18;1.65;;;;;;;;;;5012173;28;20080;-59
2022/09/25 14:05:36;;;;;;;4.03;1.80;;;;;;;;;;5029191;28;20107;-62
2022/09/25 14:08:08;;;;;;;7.07;1.90;;;;;;;;;;5030720;28;20025;-62
2022/09/25 14:10:35;;;;;;;4.72;1.98;;;;;;;;;;5019817;28;20038;-63
2022/09/25 14:13:02;;;;;;;6.22;2.20;;;;;;;;;;5022638;28;20036;-60
2022/09/25 14:15:34;;;;;;;6.40;2.15;;;;;;;;;;5051738;28;20094;-60
2022/09/25 14:18:04;;;;;;;8.20;2.58;;;;;;;;;;5050287;28;20033;-63
2022/09/25 14:20:33;;;;;;;8.90;2.58;;;;;;;;;;5048258;28;20489;-60
2022/09/25 14:23:04;;;;;;;5.57;2.10;;;;;;;;;;5050224;28;20064;-64
2022/09/25 14:25:32;;;;;;;5.80;2.33;;;;;;;;;;5030995;28;20022;-60
2022/09/25 14:28:00;;;;;;;4.05;1.88;;;;;;;;;;5030218;28;20022;-63
2022/09/25 14:30:28;;;;;;;3.90;2.10;;;;;;;;;;5027518;28;20402;-60
2022/09/25 14:33:14;;;;;;;6.07;1.90;;;;;;;;;;5031560;28;20037;-63
2022/09/25 14:35:57;;;;;;;7.68;2.08;;;;;;;;;;5017992;28;20033;-60
2022/09/25 14:38:23;;;;;;;;;;;;;;;;;;5024856;28;20029;-63
2022/09/25 14:41:04;;;;;;;6.40;2.10;;;;;;;;;;5050594;28;19916;-64
2022/09/25 14:43:50;;;;;;;11.10;2.20;;;;;;;;;;5053623;28;20421;-63
2022/09/25 14:46:22;;;;;;;4.90;2.22;;;;;;;;;;5055137;28;20041;-63
2022/09/25 14:48:59;;;;;;;13.40;2.40;;;;;;;;;;5036969;28;20025;-59
2022/09/25 14:51:40;;;;;;;10.75;2.40;;;;;;;;;;5029434;28;20025;-62
2022/09/25 14:54:09;;;;;;;10.98;2.40;;;;;;;;;;5040979;28;20030;-59
2022/09/25 14:56:36;;;;;;;8.18;2.75;;;;;;;;;;5035967;28;20049;-59
2022/09/25 14:59:09;;;;;;;6.90;2.53;;;;;;;;;;5032698;28;20033;-59
2022/09/25 15:01:36;;;;;;;7.57;2.13;;;;;;;;;;5034322;28;20042;-62
2022/09/25 15:04:05;;;;;;;6.05;2.42;;;;;;;;;;5034657;28;20060;-59
2022/09/25 15:06:37;;;;;;;9.10;2.88;;;;;;;;;;5032264;28;20041;-62
2022/09/25 15:09:23;;;;;;;8.30;2.15;;;;;;;;;;5032988;28;20037;-60
2022/09/25 15:11:54;;;;;;;11.20;2.60;;;;;;;;;;5034253;28;20029;-59
2022/09/25 15:14:21;;;;;;;12.60;2.90;;;;;;;;;;5034161;28;20053;-59
2022/09/25 15:19:37;;;;;;;10.80;3.50;;;;;;;;;;5031298;28;20088;-58
2022/09/25 15:22:12;;;;;;;10.00;3.08;;;;;;;;;;5034056;28;20427;-59
2022/09/25 15:24:44;;;;;;;30.63;3.55;;;;;;;;;;5034315;28;20607;-61
2022/09/25 15:27:15;;;;;;;21.77;3.42;;;;;;;;;;5033667;28;20091;-60